createdAt,value
2018-05-04T00:00:30.199Z,15.26
2018-05-04T00:01:30.134Z,15.28
2018-05-04T00:02:30.054Z,15.26
2018-05-04T00:03:29.990Z,15.10
2018-05-04T00:04:29.912Z,15.18
2018-05-04T00:05:29.839Z,15.26
2018-05-04T00:06:29.760Z,15.21
2018-05-04T00:07:29.695Z,15.15
2018-05-04T00:08:29.613Z,15.10
2018-05-04T00:09:29.543Z,15.13
2018-05-04T00:10:29.465Z,15.13
2018-05-04T00:11:29.399Z,15.05
2018-05-04T00:12:29.319Z,15.02
2018-05-04T00:13:29.254Z,14.98
2018-05-04T00:14:29.175Z,14.91
2018-05-04T00:15:29.107Z,14.97
2018-05-04T00:16:29.025Z,14.85
2018-05-04T00:17:28.965Z,14.80
2018-05-04T00:18:28.878Z,14.91
2018-05-04T00:19:28.819Z,14.88
2018-05-04T00:20:28.730Z,14.87
2018-05-04T00:21:28.665Z,14.80
2018-05-04T00:22:28.583Z,14.83
2018-05-04T00:23:28.523Z,14.83
2018-05-04T00:24:28.440Z,14.69
2018-05-04T00:25:28.374Z,14.74
2018-05-04T00:26:28.293Z,14.69
2018-05-04T00:27:29.227Z,14.64
2018-05-04T00:28:28.144Z,14.64
2018-05-04T00:29:28.080Z,14.74
2018-05-04T00:30:27.996Z,14.65
2018-05-04T00:31:27.931Z,14.64
2018-05-04T00:32:27.851Z,14.67
2018-05-04T00:33:27.786Z,14.68
2018-05-04T00:34:27.704Z,14.60
2018-05-04T00:35:27.637Z,14.61
2018-05-04T00:36:27.564Z,14.64
2018-05-04T00:37:27.487Z,14.61
2018-05-04T00:38:27.413Z,14.53
2018-05-04T00:39:27.341Z,14.46
2018-05-04T00:40:27.261Z,14.56
2018-05-04T00:41:27.196Z,14.56
2018-05-04T00:42:27.114Z,14.44
2018-05-04T00:43:27.047Z,14.46
2018-05-04T00:44:26.967Z,14.53
2018-05-04T00:45:26.905Z,14.50
2018-05-04T00:46:26.816Z,14.56
2018-05-04T00:47:26.763Z,14.44
2018-05-04T00:48:26.672Z,14.38
2018-05-04T00:49:26.608Z,14.35
2018-05-04T00:50:26.527Z,14.32
2018-05-04T00:51:26.459Z,14.21
2018-05-04T00:52:26.376Z,14.03
2018-05-04T00:53:26.312Z,13.95
2018-05-04T00:54:26.231Z,13.84
2018-05-04T00:55:26.163Z,13.73
2018-05-04T00:56:26.082Z,13.76
2018-05-04T00:57:26.024Z,13.71
2018-05-04T00:58:25.935Z,13.56
2018-05-04T00:59:25.871Z,13.59
2018-05-04T01:00:25.785Z,13.59
2018-05-04T01:01:25.722Z,13.66
2018-05-04T01:02:25.640Z,13.58
2018-05-04T01:03:25.575Z,13.62
2018-05-04T01:04:25.506Z,13.66
2018-05-04T01:05:25.423Z,13.65
2018-05-04T01:06:25.349Z,13.62
2018-05-04T01:07:25.272Z,13.66
2018-05-04T01:08:25.190Z,13.61
2018-05-04T01:09:25.125Z,13.76
2018-05-04T01:10:25.048Z,13.68
2018-05-04T01:11:24.988Z,13.76
2018-05-04T01:12:24.900Z,13.73
2018-05-04T01:13:24.832Z,13.63
2018-05-04T01:14:24.751Z,13.59
2018-05-04T01:15:24.686Z,13.66
2018-05-04T01:16:24.601Z,13.56
2018-05-04T01:17:24.537Z,13.63
2018-05-04T01:18:24.459Z,13.61
2018-05-04T01:19:24.387Z,13.58
2018-05-04T01:20:24.305Z,13.62
2018-05-04T01:21:24.243Z,13.65
2018-05-04T01:22:24.158Z,13.59
2018-05-04T01:23:24.092Z,13.48
2018-05-04T01:24:24.032Z,13.47
2018-05-04T01:25:23.944Z,13.47
2018-05-04T01:26:23.858Z,13.48
2018-05-04T01:27:23.798Z,13.47
2018-05-04T01:28:23.713Z,13.37
2018-05-04T01:29:23.644Z,13.37
2018-05-04T01:30:23.560Z,13.33
2018-05-04T01:31:23.496Z,13.29
2018-05-04T01:32:23.416Z,13.33
2018-05-04T01:33:23.352Z,13.28
2018-05-04T01:34:23.264Z,13.25
2018-05-04T01:35:23.198Z,13.22
2018-05-04T01:36:23.116Z,13.19
2018-05-04T01:37:23.055Z,13.14
2018-05-04T01:38:22.965Z,13.18
2018-05-04T01:39:22.900Z,13.19
2018-05-04T01:40:22.815Z,13.09
2018-05-04T01:41:22.755Z,13.02
2018-05-04T01:42:22.672Z,12.99
2018-05-04T01:43:22.604Z,13.00
2018-05-04T01:44:23.353Z,12.88
2018-05-04T01:45:22.453Z,12.86
2018-05-04T01:46:22.377Z,12.91
2018-05-04T01:47:22.306Z,12.82
2018-05-04T01:48:22.219Z,12.81
2018-05-04T01:49:22.159Z,12.84
2018-05-04T01:50:22.071Z,12.82
2018-05-04T01:51:23.006Z,12.73
2018-05-04T01:52:21.924Z,12.69
2018-05-04T01:53:21.857Z,12.67
2018-05-04T01:54:21.778Z,12.69
2018-05-04T01:55:21.708Z,12.60
2018-05-04T01:56:21.626Z,12.56
2018-05-04T01:57:21.556Z,12.48
2018-05-04T01:58:21.477Z,12.42
2018-05-04T01:59:21.408Z,12.39
2018-05-04T02:00:21.326Z,12.37
2018-05-04T02:01:21.261Z,12.24
2018-05-04T02:02:21.177Z,12.24
2018-05-04T02:03:21.110Z,12.21
2018-05-04T02:04:21.027Z,12.18
2018-05-04T02:05:20.958Z,12.21
2018-05-04T02:06:20.878Z,12.21
2018-05-04T02:07:20.809Z,12.30
2018-05-04T02:08:20.730Z,12.24
2018-05-04T02:09:20.655Z,12.30
2018-05-04T02:10:20.578Z,12.26
2018-05-04T02:11:20.513Z,12.30
2018-05-04T02:12:20.427Z,12.26
2018-05-04T02:13:20.359Z,12.36
2018-05-04T02:14:20.278Z,12.39
2018-05-04T02:15:20.214Z,12.39
2018-05-04T02:16:20.132Z,12.44
2018-05-04T02:17:20.059Z,12.36
2018-05-04T02:18:19.983Z,12.36
2018-05-04T02:19:19.908Z,12.27
2018-05-04T02:20:19.832Z,12.16
2018-05-04T02:21:19.760Z,12.18
2018-05-04T02:22:19.678Z,12.23
2018-05-04T02:23:19.612Z,12.15
2018-05-04T02:24:19.531Z,12.13
2018-05-04T02:25:19.464Z,12.11
2018-05-04T02:26:19.389Z,12.11
2018-05-04T02:27:19.309Z,12.11
2018-05-04T02:28:19.229Z,12.08
2018-05-04T02:29:19.161Z,12.06
2018-05-04T02:30:19.078Z,12.09
2018-05-04T02:31:19.015Z,12.00
2018-05-04T02:32:18.928Z,12.03
2018-05-04T02:33:18.863Z,12.08
2018-05-04T02:34:18.775Z,12.11
2018-05-04T02:35:18.714Z,12.15
2018-05-04T02:36:18.627Z,12.15
2018-05-04T02:37:18.560Z,12.15
2018-05-04T02:38:18.477Z,12.08
2018-05-04T02:39:18.416Z,12.00
2018-05-04T02:40:18.325Z,12.06
2018-05-04T02:41:18.260Z,12.09
2018-05-04T02:42:18.175Z,12.05
2018-05-04T02:43:18.120Z,12.11
2018-05-04T02:44:18.029Z,12.19
2018-05-04T02:45:17.959Z,12.13
2018-05-04T02:46:17.876Z,12.23
2018-05-04T02:47:17.805Z,12.24
2018-05-04T02:48:17.721Z,12.30
2018-05-04T02:49:17.654Z,12.28
2018-05-04T02:50:17.573Z,12.34
2018-05-04T02:51:17.507Z,12.31
2018-05-04T02:52:17.432Z,12.30
2018-05-04T02:53:17.354Z,12.39
2018-05-04T02:54:17.273Z,12.36
2018-05-04T02:55:17.208Z,12.41
2018-05-04T02:56:17.121Z,12.44
2018-05-04T02:57:17.060Z,12.49
2018-05-04T02:58:16.971Z,12.46
2018-05-04T02:59:16.905Z,12.45
2018-05-04T03:00:16.820Z,12.52
2018-05-04T03:01:16.754Z,12.41
2018-05-04T03:02:16.674Z,12.46
2018-05-04T03:03:16.605Z,12.31
2018-05-04T03:04:16.519Z,12.42
2018-05-04T03:05:16.453Z,12.39
2018-05-04T03:06:16.372Z,12.41
2018-05-04T03:07:16.304Z,12.41
2018-05-04T03:08:16.219Z,12.37
2018-05-04T03:09:16.158Z,12.37
2018-05-04T03:10:16.076Z,12.36
2018-05-04T03:11:16.006Z,12.42
2018-05-04T03:12:15.919Z,12.36
2018-05-04T03:13:15.855Z,12.49
2018-05-04T03:14:15.767Z,12.51
2018-05-04T03:15:15.715Z,12.55
2018-05-04T03:16:15.614Z,12.49
2018-05-04T03:17:15.552Z,12.51
2018-05-04T03:18:15.476Z,12.59
2018-05-04T03:19:16.407Z,12.55
2018-05-04T03:20:15.323Z,12.61
2018-05-04T03:21:15.249Z,12.59
2018-05-04T03:22:15.166Z,12.53
2018-05-04T03:23:15.109Z,12.63
2018-05-04T03:24:15.015Z,12.55
2018-05-04T03:25:14.951Z,12.60
2018-05-04T03:26:14.870Z,12.61
2018-05-04T03:27:14.795Z,12.55
2018-05-04T03:28:14.723Z,12.61
2018-05-04T03:29:15.657Z,12.59
2018-05-04T03:30:14.571Z,12.70
2018-05-04T03:31:14.499Z,12.59
2018-05-04T03:32:14.415Z,12.61
2018-05-04T03:33:14.348Z,12.61
2018-05-04T03:34:14.263Z,12.70
2018-05-04T03:35:14.194Z,12.64
2018-05-04T03:36:14.113Z,12.63
2018-05-04T03:37:14.047Z,12.70
2018-05-04T03:38:13.960Z,12.66
2018-05-04T03:39:13.895Z,12.73
2018-05-04T03:40:13.814Z,12.71
2018-05-04T03:41:13.826Z,12.71
2018-05-04T03:42:13.662Z,12.85
2018-05-04T03:43:13.634Z,12.84
2018-05-04T03:44:13.514Z,12.81
2018-05-04T03:45:13.545Z,12.85
2018-05-04T03:46:13.362Z,12.79
2018-05-04T03:47:13.356Z,12.85
2018-05-04T03:48:13.215Z,12.89
2018-05-04T03:49:13.165Z,12.85
2018-05-04T03:50:13.061Z,12.97
2018-05-04T03:51:13.076Z,12.96
2018-05-04T03:52:12.908Z,12.85
2018-05-04T03:53:12.885Z,12.86
2018-05-04T03:54:12.763Z,12.88
2018-05-04T03:55:12.794Z,12.89
2018-05-04T03:56:12.608Z,12.96
2018-05-04T03:57:12.602Z,12.92
2018-05-04T03:58:12.463Z,12.97
2018-05-04T03:59:12.412Z,12.92
2018-05-04T04:00:12.310Z,12.96
2018-05-04T04:01:12.324Z,13.04
2018-05-04T04:02:12.161Z,13.02
2018-05-04T04:03:12.129Z,12.99
2018-05-04T04:04:12.007Z,12.89
2018-05-04T04:05:12.043Z,13.00
2018-05-04T04:06:11.859Z,12.96
2018-05-04T04:07:11.849Z,12.99
2018-05-04T04:08:11.708Z,13.00
2018-05-04T04:09:11.640Z,13.02
2018-05-04T04:10:11.558Z,13.07
2018-05-04T04:11:11.569Z,13.07
2018-05-04T04:12:11.407Z,13.09
2018-05-04T04:13:11.377Z,13.02
2018-05-04T04:14:11.318Z,13.02
2018-05-04T04:15:11.291Z,13.04
2018-05-04T04:16:11.108Z,13.07
2018-05-04T04:17:11.043Z,12.99
2018-05-04T04:18:10.963Z,13.03
2018-05-04T04:19:10.904Z,13.04
2018-05-04T04:20:10.807Z,13.03
2018-05-04T04:21:10.818Z,13.19
2018-05-04T04:22:10.659Z,13.21
2018-05-04T04:23:10.590Z,13.14
2018-05-04T04:24:10.504Z,13.15
2018-05-04T04:25:10.533Z,13.10
2018-05-04T04:26:10.366Z,13.17
2018-05-04T04:27:10.345Z,13.11
2018-05-04T04:28:10.287Z,13.22
2018-05-04T04:29:10.139Z,13.14
2018-05-04T04:30:10.062Z,13.24
2018-05-04T04:31:09.988Z,13.25
2018-05-04T04:32:09.907Z,13.28
2018-05-04T04:33:09.870Z,13.25
2018-05-04T04:34:09.755Z,13.24
2018-05-04T04:35:09.690Z,13.28
2018-05-04T04:36:09.609Z,13.27
2018-05-04T04:37:09.595Z,13.28
2018-05-04T04:38:09.459Z,13.24
2018-05-04T04:39:09.392Z,13.28
2018-05-04T04:40:09.306Z,13.27
2018-05-04T04:41:09.315Z,13.24
2018-05-04T04:42:09.158Z,13.28
2018-05-04T04:43:09.096Z,13.25
2018-05-04T04:44:09.010Z,13.38
2018-05-04T04:45:09.032Z,13.28
2018-05-04T04:46:08.857Z,13.25
2018-05-04T04:47:08.837Z,13.21
2018-05-04T04:48:08.710Z,13.29
2018-05-04T04:49:08.644Z,13.37
2018-05-04T04:50:08.565Z,13.36
2018-05-04T04:51:08.489Z,13.36
2018-05-04T04:52:08.408Z,13.37
2018-05-04T04:53:08.341Z,13.33
2018-05-04T04:54:08.260Z,13.38
2018-05-04T04:55:08.199Z,13.41
2018-05-04T04:56:08.107Z,13.41
2018-05-04T04:57:08.086Z,13.44
2018-05-04T04:58:07.960Z,13.43
2018-05-04T04:59:07.994Z,13.50
2018-05-04T05:00:07.812Z,13.59
2018-05-04T05:01:07.801Z,13.50
2018-05-04T05:02:07.670Z,13.50
2018-05-04T05:03:07.590Z,13.50
2018-05-04T05:04:07.513Z,13.62
2018-05-04T05:05:07.442Z,13.48
2018-05-04T05:06:07.363Z,13.48
2018-05-04T05:07:07.335Z,13.59
2018-05-04T05:08:07.219Z,13.61
2018-05-04T05:09:07.246Z,13.59
2018-05-04T05:10:07.062Z,13.62
2018-05-04T05:11:06.997Z,13.66
2018-05-04T05:12:06.915Z,13.63
2018-05-04T05:13:06.851Z,13.74
2018-05-04T05:14:06.766Z,13.61
2018-05-04T05:15:06.772Z,13.63
2018-05-04T05:16:06.775Z,13.70
2018-05-04T05:17:06.541Z,13.68
2018-05-04T05:18:06.469Z,13.70
2018-05-04T05:19:06.421Z,13.78
2018-05-04T05:20:06.314Z,13.78
2018-05-04T05:21:06.300Z,13.80
2018-05-04T05:22:06.190Z,13.78
2018-05-04T05:23:06.880Z,13.91
2018-05-04T05:24:06.015Z,13.84
2018-05-04T05:25:06.014Z,13.89
2018-05-04T05:26:05.869Z,13.92
2018-05-04T05:27:05.828Z,13.94
2018-05-04T05:28:05.722Z,13.94
2018-05-04T05:29:05.649Z,13.99
2018-05-04T05:30:05.569Z,14.01
2018-05-04T05:31:05.504Z,13.94
2018-05-04T05:32:05.418Z,13.99
2018-05-04T05:33:05.359Z,13.96
2018-05-04T05:34:05.273Z,13.99
2018-05-04T05:35:05.205Z,14.02
2018-05-04T05:36:05.125Z,13.94
2018-05-04T05:37:05.053Z,13.96
2018-05-04T05:38:04.975Z,14.05
2018-05-04T05:39:04.905Z,14.02
2018-05-04T05:40:04.821Z,14.11
2018-05-04T05:41:04.756Z,14.09
2018-05-04T05:42:04.674Z,14.13
2018-05-04T05:43:04.607Z,14.07
2018-05-04T05:44:04.523Z,14.09
2018-05-04T05:45:05.455Z,14.02
2018-05-04T05:46:04.376Z,14.09
2018-05-04T05:47:04.310Z,14.19
2018-05-04T05:48:04.228Z,14.21
2018-05-04T05:49:04.156Z,14.11
2018-05-04T05:50:04.076Z,14.27
2018-05-04T05:51:04.012Z,14.31
2018-05-04T05:52:03.930Z,14.14
2018-05-04T05:53:03.855Z,14.14
2018-05-04T05:54:03.777Z,14.13
2018-05-04T05:55:03.719Z,14.21
2018-05-04T05:56:03.625Z,14.23
2018-05-04T05:57:03.569Z,14.27
2018-05-04T05:58:03.502Z,14.20
2018-05-04T05:59:03.424Z,14.16
2018-05-04T06:00:03.330Z,14.19
2018-05-04T06:01:03.266Z,14.14
2018-05-04T06:02:03.195Z,14.19
2018-05-04T06:03:03.116Z,14.27
2018-05-04T06:04:03.036Z,14.21
2018-05-04T06:05:02.965Z,14.29
2018-05-04T06:06:02.888Z,14.35
2018-05-04T06:07:02.817Z,14.39
2018-05-04T06:08:02.734Z,14.35
2018-05-04T06:09:02.669Z,14.42
2018-05-04T06:10:02.588Z,14.38
2018-05-04T06:11:02.521Z,14.38
2018-05-04T06:12:02.441Z,14.36
2018-05-04T06:13:02.369Z,14.47
2018-05-04T06:14:02.293Z,14.41
2018-05-04T06:15:02.296Z,14.49
2018-05-04T06:16:02.143Z,14.46
2018-05-04T06:17:02.075Z,14.42
2018-05-04T06:18:01.993Z,14.39
2018-05-04T06:19:01.928Z,14.42
2018-05-04T06:20:01.847Z,14.42
2018-05-04T06:21:01.779Z,14.47
2018-05-04T06:22:01.700Z,14.54
2018-05-04T06:23:01.630Z,14.52
2018-05-04T06:24:01.544Z,14.53
2018-05-04T06:25:01.486Z,14.56
2018-05-04T06:26:01.401Z,14.61
2018-05-04T06:27:01.332Z,14.68
2018-05-04T06:28:01.252Z,14.67
2018-05-04T06:29:01.182Z,14.69
2018-05-04T06:30:01.101Z,14.79
2018-05-04T06:31:01.036Z,14.78
2018-05-04T06:32:00.948Z,14.84
2018-05-04T06:33:00.886Z,14.87
2018-05-04T06:34:00.804Z,14.91
2018-05-04T06:35:00.730Z,14.80
2018-05-04T06:36:00.669Z,14.95
2018-05-04T06:37:00.578Z,14.94
2018-05-04T06:38:00.625Z,15.03
2018-05-04T06:39:00.431Z,15.02
2018-05-04T06:40:00.435Z,15.10
2018-05-04T06:41:00.286Z,15.16
2018-05-04T06:42:00.239Z,15.15
2018-05-04T06:43:00.136Z,15.15
2018-05-04T06:44:00.151Z,15.13
2018-05-04T06:45:00.319Z,15.20
2018-05-04T06:46:00.005Z,15.16
2018-05-04T06:46:59.841Z,15.30
2018-05-04T06:47:59.816Z,15.27
2018-05-04T06:48:59.696Z,15.30
2018-05-04T06:49:59.725Z,15.39
2018-05-04T06:50:59.552Z,15.48
2018-05-04T06:51:59.539Z,15.52
2018-05-04T06:52:59.402Z,15.46
2018-05-04T06:53:59.342Z,15.49
2018-05-04T06:55:00.209Z,15.59
2018-05-04T06:55:59.250Z,15.61
2018-05-04T06:56:59.104Z,15.75
2018-05-04T06:57:59.061Z,15.76
2018-05-04T06:58:58.953Z,15.81
2018-05-04T06:59:58.979Z,15.86
2018-05-04T07:00:58.805Z,15.88
2018-05-04T07:01:58.785Z,15.86
2018-05-04T07:02:58.659Z,15.85
2018-05-04T07:03:58.693Z,15.91
2018-05-04T07:04:58.514Z,15.94
2018-05-04T07:05:58.498Z,16.01
2018-05-04T07:06:58.363Z,16.04
2018-05-04T07:07:58.306Z,16.01
2018-05-04T07:08:58.254Z,16.08
2018-05-04T07:09:58.219Z,16.15
2018-05-04T07:10:58.075Z,16.25
2018-05-04T07:11:58.026Z,16.34
2018-05-04T07:12:57.923Z,16.37
2018-05-04T07:13:57.937Z,16.40
2018-05-04T07:14:57.847Z,16.44
2018-05-04T07:15:57.753Z,16.53
2018-05-04T07:16:57.636Z,16.59
2018-05-04T07:17:57.655Z,16.62
2018-05-04T07:18:57.482Z,16.67
2018-05-04T07:19:57.466Z,16.85
2018-05-04T07:20:57.334Z,16.88
2018-05-04T07:21:57.406Z,16.95
2018-05-04T07:22:57.190Z,17.07
2018-05-04T07:23:57.192Z,17.25
2018-05-04T07:24:57.044Z,17.39
2018-05-04T07:25:56.995Z,17.29
2018-05-04T07:26:56.896Z,17.46
2018-05-04T07:27:56.907Z,17.39
2018-05-04T07:28:56.750Z,17.55
2018-05-04T07:29:56.719Z,17.66
2018-05-04T07:30:56.599Z,17.64
2018-05-04T07:31:56.627Z,17.76
2018-05-04T07:32:56.462Z,17.84
2018-05-04T07:33:56.433Z,18.00
2018-05-04T07:34:56.314Z,18.07
2018-05-04T07:35:56.362Z,18.06
2018-05-04T07:36:56.171Z,18.07
2018-05-04T07:37:56.152Z,18.11
2018-05-04T07:38:56.028Z,18.27
2018-05-04T07:39:56.074Z,18.34
2018-05-04T07:40:55.877Z,18.42
2018-05-04T07:41:55.873Z,18.53
2018-05-04T07:42:55.733Z,18.46
2018-05-04T07:43:56.704Z,18.46
2018-05-04T07:44:55.589Z,18.59
2018-05-04T07:45:55.595Z,18.68
2018-05-04T07:46:55.451Z,18.74
2018-05-04T07:47:55.397Z,18.67
2018-05-04T07:48:55.299Z,18.64
2018-05-04T07:49:55.315Z,18.64
2018-05-04T07:50:55.158Z,18.77
2018-05-04T07:51:55.120Z,18.86
2018-05-04T07:52:55.015Z,19.01
2018-05-04T07:53:55.044Z,19.11
2018-05-04T07:54:54.870Z,19.23
2018-05-04T07:55:54.839Z,19.27
2018-05-04T07:56:54.728Z,19.51
2018-05-04T07:57:54.753Z,19.63
2018-05-04T07:58:54.586Z,19.68
2018-05-04T07:59:54.559Z,19.63
2018-05-04T08:00:54.440Z,19.63
2018-05-04T08:01:54.469Z,19.58
2018-05-04T08:02:54.353Z,19.48
2018-05-04T08:03:54.278Z,19.54
2018-05-04T08:04:54.158Z,19.53
2018-05-04T08:05:54.189Z,19.73
2018-05-04T08:06:54.018Z,19.75
2018-05-04T08:07:53.999Z,19.87
2018-05-04T08:08:53.875Z,20.01
2018-05-04T08:09:53.901Z,19.86
2018-05-04T08:10:53.736Z,19.87
2018-05-04T08:11:53.713Z,20.00
2018-05-04T08:12:53.589Z,20.00
2018-05-04T08:13:53.628Z,20.10
2018-05-04T08:14:53.451Z,20.20
2018-05-04T08:15:53.439Z,20.46
2018-05-04T08:16:53.317Z,20.50
2018-05-04T08:17:53.351Z,20.51
2018-05-04T08:18:53.173Z,20.64
2018-05-04T08:19:53.159Z,20.64
2018-05-04T08:20:53.029Z,20.66
2018-05-04T08:21:53.071Z,20.62
2018-05-04T08:22:52.888Z,20.75
2018-05-04T08:23:52.877Z,20.65
2018-05-04T08:24:52.747Z,20.53
2018-05-04T08:25:52.789Z,20.35
2018-05-04T08:26:52.609Z,20.30
2018-05-04T08:27:52.602Z,20.31
2018-05-04T08:28:52.468Z,20.35
2018-05-04T08:29:52.512Z,20.42
2018-05-04T08:30:52.333Z,20.51
2018-05-04T08:31:52.317Z,20.56
2018-05-04T08:32:52.191Z,20.62
2018-05-04T08:33:52.229Z,20.61
2018-05-04T08:34:52.055Z,20.66
2018-05-04T08:35:52.035Z,20.72
2018-05-04T08:36:51.909Z,20.79
2018-05-04T08:37:51.947Z,21.04
2018-05-04T08:38:51.773Z,21.08
2018-05-04T08:39:51.759Z,21.30
2018-05-04T08:40:51.685Z,21.35
2018-05-04T08:41:51.670Z,21.27
2018-05-04T08:42:51.545Z,21.42
2018-05-04T08:43:51.477Z,21.45
2018-05-04T08:44:51.356Z,21.46
2018-05-04T08:45:51.383Z,21.53
2018-05-04T08:46:51.380Z,21.42
2018-05-04T08:47:51.186Z,21.44
2018-05-04T08:48:51.079Z,21.60
2018-05-04T08:49:51.103Z,21.75
2018-05-04T08:50:50.980Z,21.79
2018-05-04T08:51:50.911Z,21.81
2018-05-04T08:52:50.803Z,21.48
2018-05-04T08:53:52.768Z,21.41
2018-05-04T08:54:50.673Z,21.36
2018-05-04T08:55:50.636Z,21.31
2018-05-04T08:56:50.530Z,21.41
2018-05-04T08:57:50.543Z,21.31
2018-05-04T08:58:50.392Z,21.42
2018-05-04T08:59:50.352Z,21.54
2018-05-04T09:00:50.255Z,21.70
2018-05-04T09:01:50.260Z,21.72
2018-05-04T09:02:50.117Z,21.66
2018-05-04T09:03:50.071Z,21.67
2018-05-04T09:04:49.979Z,21.57
2018-05-04T09:05:49.982Z,21.39
2018-05-04T09:06:49.848Z,21.24
2018-05-04T09:07:49.789Z,21.16
2018-05-04T09:08:49.721Z,21.33
2018-05-04T09:09:49.701Z,21.39
2018-05-04T09:10:49.565Z,21.60
2018-05-04T09:11:49.607Z,21.64
2018-05-04T09:12:49.499Z,21.59
2018-05-04T09:13:49.421Z,21.64
2018-05-04T09:14:49.297Z,21.70
2018-05-04T09:15:49.333Z,21.72
2018-05-04T09:16:49.156Z,21.79
2018-05-04T09:17:49.143Z,21.76
2018-05-04T09:18:49.018Z,21.91
2018-05-04T09:19:49.132Z,22.10
2018-05-04T09:20:48.884Z,22.13
2018-05-04T09:21:48.857Z,21.95
2018-05-04T09:22:48.745Z,21.94
2018-05-04T09:23:48.771Z,22.02
2018-05-04T09:24:48.610Z,21.72
2018-05-04T09:25:48.579Z,21.70
2018-05-04T09:26:48.477Z,21.81
2018-05-04T09:27:48.490Z,21.75
2018-05-04T09:28:48.338Z,21.41
2018-05-04T09:29:48.298Z,21.36
2018-05-04T09:30:48.273Z,21.30
2018-05-04T09:31:48.213Z,21.30
2018-05-04T09:32:48.068Z,21.42
2018-05-04T09:33:48.017Z,21.66
2018-05-04T09:34:47.932Z,21.78
2018-05-04T09:35:47.863Z,21.82
2018-05-04T09:36:47.797Z,21.95
2018-05-04T09:37:47.844Z,22.05
2018-05-04T09:38:47.657Z,22.13
2018-05-04T09:39:47.649Z,22.34
2018-05-04T09:40:47.516Z,22.38
2018-05-04T09:41:47.462Z,22.52
2018-05-04T09:42:47.387Z,22.62
2018-05-04T09:43:47.376Z,22.75
2018-05-04T09:44:47.250Z,22.84
2018-05-04T09:45:47.282Z,22.94
2018-05-04T09:46:47.114Z,23.07
2018-05-04T09:47:47.092Z,23.20
2018-05-04T09:48:46.979Z,23.23
2018-05-04T09:49:51.609Z,23.33
2018-05-04T09:50:46.844Z,23.04
2018-05-04T09:51:46.808Z,22.93
2018-05-04T09:52:46.713Z,22.77
2018-05-04T09:53:57.575Z,22.74
2018-05-04T09:54:47.467Z,22.68
2018-05-04T09:55:46.529Z,22.37
2018-05-04T09:56:46.444Z,22.32
2018-05-04T09:57:46.441Z,22.23
2018-05-04T09:58:46.309Z,22.28
2018-05-04T09:59:46.345Z,22.23
2018-05-04T10:00:46.170Z,22.19
2018-05-04T10:01:46.160Z,22.41
2018-05-04T10:02:46.037Z,22.47
2018-05-04T10:03:46.077Z,22.56
2018-05-04T10:04:45.916Z,22.65
2018-05-04T10:05:45.882Z,22.75
2018-05-04T10:06:45.786Z,22.79
2018-05-04T10:07:45.794Z,22.86
2018-05-04T10:08:45.631Z,22.84
2018-05-04T10:09:45.599Z,22.81
2018-05-04T10:10:45.502Z,22.74
2018-05-04T10:11:45.509Z,22.74
2018-05-04T10:12:45.362Z,22.78
2018-05-04T10:13:45.317Z,22.90
2018-05-04T10:14:45.232Z,22.90
2018-05-04T10:15:45.224Z,22.90
2018-05-04T10:16:45.094Z,22.79
2018-05-04T10:17:45.140Z,22.63
2018-05-04T10:18:44.963Z,22.52
2018-05-04T10:19:44.943Z,22.26
2018-05-04T10:20:44.827Z,22.22
2018-05-04T10:21:45.782Z,22.15
2018-05-04T10:22:44.704Z,22.10
2018-05-04T10:23:44.667Z,22.20
2018-05-04T10:24:44.556Z,22.24
2018-05-04T10:25:44.577Z,22.17
2018-05-04T10:26:44.424Z,22.30
2018-05-04T10:27:44.389Z,22.28
2018-05-04T10:28:44.297Z,22.22
2018-05-04T10:29:44.297Z,22.22
2018-05-04T10:30:44.159Z,22.24
2018-05-04T10:31:44.206Z,22.44
2018-05-04T10:32:44.025Z,22.69
2018-05-04T10:33:44.018Z,22.65
2018-05-04T10:34:43.893Z,22.75
2018-05-04T10:35:43.929Z,22.89
2018-05-04T10:36:43.757Z,22.83
2018-05-04T10:37:43.738Z,22.89
2018-05-04T10:38:43.690Z,22.94
2018-05-04T10:39:43.650Z,22.77
2018-05-04T10:40:43.490Z,22.65
2018-05-04T10:41:43.456Z,22.69
2018-05-04T10:42:43.356Z,22.81
2018-05-04T10:43:43.366Z,23.07
2018-05-04T10:44:43.228Z,23.11
2018-05-04T10:45:43.175Z,23.18
2018-05-04T10:46:43.088Z,23.24
2018-05-04T10:47:43.085Z,23.45
2018-05-04T10:48:42.955Z,23.49
2018-05-04T10:49:42.997Z,23.53
2018-05-04T10:50:42.819Z,23.65
2018-05-04T10:51:42.809Z,23.60
2018-05-04T10:52:42.686Z,23.52
2018-05-04T10:53:42.719Z,23.38
2018-05-04T10:54:42.556Z,23.40
2018-05-04T10:55:42.525Z,23.55
2018-05-04T10:56:42.424Z,23.67
2018-05-04T10:57:42.443Z,23.65
2018-05-04T10:58:42.293Z,23.80
2018-05-04T10:59:42.245Z,23.79
2018-05-04T11:00:42.161Z,23.90
2018-05-04T11:01:42.156Z,23.95
2018-05-04T11:02:42.027Z,24.05
2018-05-04T11:03:42.069Z,24.20
2018-05-04T11:04:41.891Z,24.29
2018-05-04T11:05:41.877Z,24.27
2018-05-04T11:06:41.757Z,24.42
2018-05-04T11:07:41.787Z,24.41
2018-05-04T11:08:41.625Z,24.59
2018-05-04T11:09:41.593Z,24.76
2018-05-04T11:10:41.496Z,24.83
2018-05-04T11:11:41.508Z,24.73
2018-05-04T11:12:41.366Z,24.63
2018-05-04T11:13:41.315Z,24.64
2018-05-04T11:14:41.231Z,24.80
2018-05-04T11:15:41.225Z,24.91
2018-05-04T11:16:41.104Z,24.88
2018-05-04T11:17:41.136Z,24.79
2018-05-04T11:18:40.966Z,24.59
2018-05-04T11:19:40.948Z,24.50
2018-05-04T11:20:40.830Z,24.53
2018-05-04T11:21:40.860Z,24.44
2018-05-04T11:22:40.710Z,24.35
2018-05-04T11:23:40.666Z,24.29
2018-05-04T11:24:40.576Z,24.29
2018-05-04T11:25:40.577Z,24.15
2018-05-04T11:26:40.441Z,23.92
2018-05-04T11:27:40.484Z,23.89
2018-05-04T11:28:40.309Z,23.87
2018-05-04T11:29:40.294Z,23.82
2018-05-04T11:30:40.177Z,23.70
2018-05-04T11:31:40.204Z,23.60
2018-05-04T11:32:40.045Z,23.64
2018-05-04T11:33:40.016Z,23.38
2018-05-04T11:34:39.914Z,23.33
2018-05-04T11:35:39.924Z,23.29
2018-05-04T11:36:39.779Z,23.34
2018-05-04T11:37:39.735Z,23.33
2018-05-04T11:38:39.648Z,23.17
2018-05-04T11:39:39.645Z,23.18
2018-05-04T11:40:39.517Z,23.12
2018-05-04T11:41:39.556Z,23.27
2018-05-04T11:42:39.384Z,23.40
2018-05-04T11:43:39.364Z,23.38
2018-05-04T11:44:39.252Z,23.63
2018-05-04T11:45:39.281Z,23.82
2018-05-04T11:46:39.122Z,23.80
2018-05-04T11:47:39.080Z,23.56
2018-05-04T11:48:38.987Z,23.53
2018-05-04T11:49:39.059Z,23.56
2018-05-04T11:50:38.861Z,23.64
2018-05-04T11:51:38.907Z,23.95
2018-05-04T11:52:38.723Z,23.87
2018-05-04T11:53:38.714Z,23.98
2018-05-04T11:54:38.590Z,23.95
2018-05-04T11:55:38.624Z,24.07
2018-05-04T11:56:38.457Z,24.15
2018-05-04T11:57:38.443Z,24.38
2018-05-04T11:58:38.327Z,24.48
2018-05-04T11:59:38.341Z,24.54
2018-05-04T12:00:38.196Z,24.53
2018-05-04T12:01:38.153Z,24.56
2018-05-04T12:02:38.063Z,24.45
2018-05-04T12:03:38.061Z,24.52
2018-05-04T12:04:37.929Z,24.34
2018-05-04T12:05:37.978Z,24.34
2018-05-04T12:06:37.798Z,24.40
2018-05-04T12:07:37.787Z,24.42
2018-05-04T12:08:37.669Z,24.62
2018-05-04T12:09:37.702Z,24.79
2018-05-04T12:10:37.542Z,24.64
2018-05-04T12:11:37.505Z,24.67
2018-05-04T12:12:37.409Z,24.60
2018-05-04T12:13:37.416Z,24.50
2018-05-04T12:14:37.273Z,24.67
2018-05-04T12:15:37.329Z,24.56
2018-05-04T12:16:37.156Z,24.53
2018-05-04T12:17:37.136Z,24.60
2018-05-04T12:18:37.016Z,24.57
2018-05-04T12:19:37.047Z,24.71
2018-05-04T12:20:36.882Z,24.64
2018-05-04T12:21:36.853Z,24.54
2018-05-04T12:22:36.750Z,24.56
2018-05-04T12:23:36.764Z,24.69
2018-05-04T12:24:36.623Z,24.73
2018-05-04T12:25:36.579Z,24.80
2018-05-04T12:26:36.490Z,24.91
2018-05-04T12:27:36.492Z,25.04
2018-05-04T12:28:36.357Z,24.86
2018-05-04T12:29:36.396Z,24.82
2018-05-04T12:30:36.233Z,24.67
2018-05-04T12:31:36.225Z,24.56
2018-05-04T12:32:36.097Z,24.52
2018-05-04T12:33:36.114Z,24.44
2018-05-04T12:34:35.966Z,24.41
2018-05-04T12:35:35.921Z,24.44
2018-05-04T12:36:35.831Z,24.48
2018-05-04T12:37:35.837Z,24.56
2018-05-04T12:38:35.728Z,24.63
2018-05-04T12:39:35.749Z,24.54
2018-05-04T12:40:35.566Z,24.66
2018-05-04T12:41:35.554Z,24.59
2018-05-04T12:42:35.438Z,24.59
2018-05-04T12:43:35.466Z,24.73
2018-05-04T12:44:35.308Z,24.82
2018-05-04T12:45:35.276Z,24.91
2018-05-04T12:46:35.184Z,25.05
2018-05-04T12:47:35.183Z,24.95
2018-05-04T12:48:35.048Z,25.12
2018-05-04T12:49:35.100Z,25.13
2018-05-04T12:50:34.917Z,25.16
2018-05-04T12:51:34.910Z,25.09